Terminal Aerodrome Forecast
Issued by NWS

Home | Current Version | Previous Version | Text Only | Print | Product List | Glossary On
Versions: 1 2 3 4 5 6 7 8 9 10 11 12 13 14 15 16 17 18
000
FTUS46 KSEW 261700
TAFCLM
TAF
KCLM 261732Z 2618/2718 00000KT 1/4SM FG VV001
     FM262000 05005KT 4SM BR BKN007
     FM262100 05005KT P6SM SCT250
     FM271100 24003KT 4SM BR OVC003=

USA.gov is the U.S. government's official web portal to all federal, state and local government web resources and services.